Time;durP1;ratioP1;P1;durP2;ratioP2;P2;SDS_P1;SDS_P2;PMS_P1;PMS_P2;Temp;Humidity;BMP_temperature;BMP_pressure;BME280_temperature;BME280_humidity;BME280_pressure;Samples;Min_cycle;Max_cycle;Signal;HPM_P1;HPM_P2
2021/01/15 00:01:20;;;;;;;20.88;12.30;;;-2.00;99.90;;;;;;5032865;28;20473;-78
2021/01/15 00:03:47;;;;;;;20.60;11.57;;;-2.10;99.90;;;;;;5032516;28;20124;-78
2021/01/15 00:06:24;;;;;;;20.98;11.20;;;-2.20;99.90;;;;;;5032458;28;20072;-78
2021/01/15 00:08:50;;;;;;;19.60;11.57;;;-2.20;99.90;;;;;;5032161;28;20494;-78
2021/01/15 00:11:32;;;;;;;19.95;12.23;;;-2.30;99.90;;;;;;5031509;28;20124;-78
2021/01/15 00:14:00;;;;;;;21.75;13.07;;;-2.30;99.90;;;;;;5032430;28;20088;-78
2021/01/15 00:16:28;;;;;;;23.80;13.13;;;-2.40;99.90;;;;;;5032305;28;20103;-78
2021/01/15 00:18:57;;;;;;;23.25;13.13;;;-2.40;99.90;;;;;;5032305;28;20053;-78
2021/01/15 00:21:32;;;;;;;25.92;13.65;;;-2.30;99.90;;;;;;5032508;28;20128;-78
2021/01/15 00:24:04;;;;;;;23.63;13.20;;;-2.30;99.90;;;;;;5033490;28;20137;-79
2021/01/15 00:26:32;;;;;;;23.05;13.43;;;-2.20;99.90;;;;;;5034239;28;20071;-79
2021/01/15 00:28:58;;;;;;;21.85;13.00;;;-2.20;99.90;;;;;;5036922;28;20149;-79
2021/01/15 00:31:34;;;;;;;21.98;13.55;;;-2.10;99.90;;;;;;5038424;28;20049;-78
2021/01/15 00:34:01;;;;;;;25.17;13.40;;;-2.10;99.90;;;;;;5037702;28;20053;-78
2021/01/15 00:36:27;;;;;;;26.08;13.35;;;-2.10;99.90;;;;;;5037711;28;20482;-78
2021/01/15 00:38:53;;;;;;;21.42;13.02;;;-2.10;99.90;;;;;;5037255;28;20073;-78
2021/01/15 00:41:19;;;;;;;21.30;12.35;;;-2.10;99.90;;;;;;5036153;28;20084;-78
2021/01/15 00:43:46;;;;;;;22.02;12.18;;;-2.20;99.90;;;;;;5035576;28;20490;-78
2021/01/15 00:46:31;;;;;;;17.55;11.38;;;-2.10;99.90;;;;;;5036833;28;20103;-78
2021/01/15 00:49:07;;;;;;;16.48;10.30;;;-2.20;99.90;;;;;;5036561;28;20046;-78
2021/01/15 00:51:34;;;;;;;16.77;10.48;;;-2.20;99.90;;;;;;5036433;28;20069;-78
2021/01/15 00:54:00;;;;;;;20.90;11.90;;;-2.30;99.90;;;;;;5034978;28;20126;-78
2021/01/15 00:56:27;;;;;;;26.60;12.38;;;-2.30;99.90;;;;;;5034672;28;20546;-78
2021/01/15 00:58:53;;;;;;;24.35;13.48;;;-2.20;99.90;;;;;;5034772;28;20046;-78
2021/01/15 01:01:22;;;;;;;21.77;12.32;;;-2.10;99.90;;;;;;5036325;28;20049;-78
2021/01/15 01:03:51;;;;;;;21.45;13.05;;;-2.00;99.90;;;;;;5034694;28;20077;-78
2021/01/15 01:06:22;;;;;;;21.90;12.63;;;-1.90;99.90;;;;;;5035706;28;20049;-78
2021/01/15 01:08:50;;;;;;;18.60;11.73;;;-1.90;99.90;;;;;;5034463;28;20045;-78
2021/01/15 01:11:20;;;;;;;21.38;11.80;;;-1.90;99.90;;;;;;5035347;28;20046;-79
2021/01/15 01:13:47;;;;;;;20.08;11.50;;;-1.80;99.90;;;;;;5035597;28;20514;-78
2021/01/15 01:16:15;;;;;;;17.15;10.35;;;-1.60;99.90;;;;;;5035537;28;20103;-78
2021/01/15 01:18:42;;;;;;;14.32;9.55;;;-1.60;99.90;;;;;;5034292;28;20100;-78
2021/01/15 01:21:09;;;;;;;14.43;8.85;;;-1.50;99.90;;;;;;5035318;28;20468;-78
2021/01/15 01:23:36;;;;;;;15.98;9.95;;;-1.50;99.90;;;;;;5035289;28;20080;-78
2021/01/15 01:26:03;;;;;;;15.23;9.27;;;-1.40;99.90;;;;;;5035241;28;20559;-78
2021/01/15 01:28:29;;;;;;;12.50;8.07;;;-1.40;99.90;;;;;;5035217;28;20049;-78
2021/01/15 01:30:56;;;;;;;12.88;7.88;;;-1.40;99.90;;;;;;5035052;28;20086;-78
2021/01/15 01:33:22;;;;;;;14.93;8.95;;;-1.40;99.90;;;;;;5035207;28;20132;-78
2021/01/15 01:35:49;;;;;;;14.57;8.45;;;-1.40;99.90;;;;;;5033564;28;20050;-78
2021/01/15 01:38:17;;;;;;;15.00;9.00;;;-1.40;99.90;;;;;;5034276;28;20502;-79
2021/01/15 01:40:44;;;;;;;12.13;8.07;;;-1.40;99.90;;;;;;5035196;28;20144;-78
2021/01/15 01:43:11;;;;;;;14.68;8.25;;;-1.40;99.90;;;;;;5033625;28;20069;-78
2021/01/15 01:45:37;;;;;;;14.75;8.35;;;-1.40;99.90;;;;;;5034856;28;20521;-78
2021/01/15 01:48:05;;;;;;;12.20;8.27;;;-1.50;99.90;;;;;;5033625;28;20073;-78
2021/01/15 01:50:31;;;;;;;12.20;8.15;;;-1.50;99.90;;;;;;5034788;28;20195;-78
2021/01/15 01:53:01;;;;;;;12.73;8.68;;;-1.40;99.90;;;;;;5034377;28;20136;-79
2021/01/15 01:55:28;;;;;;;14.52;8.75;;;-1.40;99.90;;;;;;5034589;28;20131;-78
2021/01/15 01:57:54;;;;;;;11.25;7.78;;;-1.50;99.90;;;;;;5034681;28;20049;-78
2021/01/15 02:00:21;;;;;;;12.95;7.63;;;-1.40;99.90;;;;;;5034628;28;20490;-78
2021/01/15 02:02:47;;;;;;;12.82;7.95;;;-1.40;99.90;;;;;;5034306;28;20045;-78
2021/01/15 02:05:13;;;;;;;13.27;8.43;;;-1.40;99.90;;;;;;5033389;28;20136;-78
2021/01/15 02:07:41;;;;;;;11.50;7.65;;;-1.40;99.90;;;;;;5032993;28;20049;-78
2021/01/15 02:10:16;;;;;;;13.40;7.57;;;-1.40;99.90;;;;;;5034054;28;20085;-78
2021/01/15 02:12:57;;;;;;;16.20;8.45;;;-1.50;99.90;;;;;;5036715;28;20137;-79
2021/01/15 02:15:58;;;;;;;12.05;8.27;;;-1.50;99.90;;;;;;5035511;28;20049;-79
2021/01/15 02:18:30;;;;;;;14.98;9.13;;;-1.60;99.90;;;;;;5036457;28;20068;-80
2021/01/15 02:21:18;;;;;;;12.27;8.52;;;-1.60;99.90;;;;;;5035891;28;20128;-80
2021/01/15 02:23:46;;;;;;;18.42;8.32;;;-1.60;99.90;;;;;;5034397;28;20529;-80
2021/01/15 02:26:38;;;;;;;12.25;8.65;;;-1.60;99.90;;;;;;5035838;28;20077;-79
2021/01/15 02:29:19;;;;;;;14.02;8.35;;;-1.50;99.90;;;;;;5033662;28;20124;-78
2021/01/15 02:31:46;;;;;;;13.95;9.10;;;-1.40;99.90;;;;;;5033609;28;20053;-79
2021/01/15 02:34:50;;;;;;;12.77;7.88;;;-1.40;99.90;;;;;;5033676;28;20049;-78
2021/01/15 02:37:50;;;;;;;13.13;8.25;;;-1.40;99.90;;;;;;5033509;28;20077;-78
2021/01/15 02:40:22;;;;;;;12.30;7.53;;;-1.30;99.90;;;;;;5032932;28;20096;-78
2021/01/15 02:42:51;;;;;;;15.07;7.95;;;-1.40;99.90;;;;;;5033384;28;20494;-78
2021/01/15 02:45:18;;;;;;;14.73;8.73;;;-1.40;99.90;;;;;;5033658;28;20047;-78
2021/01/15 02:47:53;;;;;;;14.30;9.45;;;-1.40;99.90;;;;;;5033399;28;20057;-78
2021/01/15 02:50:22;;;;;;;16.15;9.30;;;-1.40;99.90;;;;;;5032508;28;20049;-78
2021/01/15 02:52:49;;;;;;;12.90;8.77;;;-1.40;99.90;;;;;;5033230;28;20049;-79
2021/01/15 02:55:16;;;;;;;14.10;9.35;;;-1.40;99.90;;;;;;5033416;28;20060;-78
2021/01/15 02:57:43;;;;;;;15.70;9.60;;;-1.30;99.90;;;;;;5032049;28;20091;-79
2021/01/15 03:00:12;;;;;;;14.32;9.82;;;-1.40;99.90;;;;;;5033391;28;20132;-78
2021/01/15 03:03:16;;;;;;;15.40;8.93;;;-1.30;99.90;;;;;;5033391;28;20052;-78
2021/01/15 03:05:49;;;;;;;14.50;8.60;;;-1.30;99.90;;;;;;5032915;28;20103;-78
2021/01/15 03:08:19;;;;;;;13.90;8.48;;;-1.20;99.90;;;;;;5033269;28;20076;-79
2021/01/15 03:10:47;;;;;;;11.70;8.32;;;-1.30;99.90;;;;;;5033053;28;20077;-78
2021/01/15 03:13:14;;;;;;;11.60;8.00;;;-1.20;99.90;;;;;;5032115;28;20140;-78
2021/01/15 03:15:41;;;;;;;14.18;8.73;;;-1.30;99.90;;;;;;5033080;28;20045;-79
2021/01/15 03:18:09;;;;;;;12.02;7.82;;;-1.20;99.90;;;;;;5032854;28;20136;-78
2021/01/15 03:20:36;;;;;;;13.60;7.80;;;-1.10;99.90;;;;;;5033231;28;20529;-78
2021/01/15 03:23:03;;;;;;;9.77;7.53;;;-1.20;99.90;;;;;;5032814;28;20045;-79
2021/01/15 03:25:29;;;;;;;12.48;7.57;;;-1.20;99.90;;;;;;5032029;28;20045;-78
2021/01/15 03:27:56;;;;;;;13.43;7.50;;;-1.10;99.90;;;;;;5031791;28;20398;-78
2021/01/15 03:30:28;;;;;;;9.98;7.50;;;-1.00;99.90;;;;;;5032927;28;20084;-78
2021/01/15 03:32:59;;;;;;;10.75;7.93;;;-1.00;99.90;;;;;;5031783;28;20077;-78
2021/01/15 03:35:28;;;;;;;11.18;8.05;;;-1.00;99.90;;;;;;5032716;28;20085;-79
2021/01/15 03:38:04;;;;;;;10.95;7.18;;;-1.00;99.90;;;;;;5032714;28;20081;-78
2021/01/15 03:40:38;;;;;;;13.05;7.32;;;-1.00;99.90;;;;;;5031543;28;20132;-79
2021/01/15 03:43:18;;;;;;;12.45;7.47;;;-1.00;99.90;;;;;;5031587;28;20453;-78
2021/01/15 03:45:46;;;;;;;12.95;7.35;;;-0.90;99.90;;;;;;5031645;28;20158;-78
2021/01/15 03:48:14;;;;;;;11.95;7.90;;;-0.90;99.90;;;;;;5032868;28;20088;-78
2021/01/15 03:50:41;;;;;;;11.82;7.47;;;-1.00;99.90;;;;;;5032870;28;20103;-78
2021/01/15 03:53:07;;;;;;;13.32;8.27;;;-0.90;99.90;;;;;;5032759;28;20469;-78
2021/01/15 03:55:34;;;;;;;12.25;7.63;;;-0.90;99.90;;;;;;5032811;28;20046;-79
2021/01/15 03:58:01;;;;;;;11.07;6.80;;;-0.90;99.90;;;;;;5032743;28;20506;-79
2021/01/15 04:00:27;;;;;;;14.52;8.18;;;-0.90;99.90;;;;;;5034887;28;20041;-80
2021/01/15 04:02:54;;;;;;;9.15;6.57;;;-0.90;99.90;;;;;;5037642;28;20464;-80
2021/01/15 04:05:20;;;;;;;9.88;7.00;;;-0.90;99.90;;;;;;5039032;28;20053;-80
2021/01/15 04:07:47;;;;;;;12.25;7.70;;;-0.90;99.90;;;;;;5037614;28;20188;-79
2021/01/15 04:10:18;;;;;;;9.85;6.78;;;-0.80;99.90;;;;;;5038502;28;20081;-80
2021/01/15 04:12:44;;;;;;;10.27;7.72;;;-0.90;99.90;;;;;;5038381;28;20494;-79
2021/01/15 04:15:16;;;;;;;13.75;7.68;;;-0.80;99.90;;;;;;5037073;28;20107;-79
2021/01/15 04:17:43;;;;;;;14.40;8.07;;;-0.80;99.90;;;;;;5037980;28;20458;-79
2021/01/15 04:20:12;;;;;;;12.95;7.53;;;-0.80;99.90;;;;;;5038645;28;20077;-79
2021/01/15 04:22:40;;;;;;;12.57;8.65;;;-0.80;99.90;;;;;;5037897;28;20109;-79
2021/01/15 04:25:07;;;;;;;10.70;7.68;;;-0.80;99.90;;;;;;5036489;28;20096;-78
2021/01/15 04:27:35;;;;;;;14.90;8.35;;;-0.80;99.90;;;;;;5036009;28;20140;-78
2021/01/15 04:30:04;;;;;;;12.73;7.53;;;-0.80;99.90;;;;;;5035865;28;20053;-78
2021/01/15 04:32:34;;;;;;;9.68;7.40;;;-0.80;99.90;;;;;;5036062;28;20088;-78
2021/01/15 04:35:01;;;;;;;12.32;7.30;;;-0.70;99.90;;;;;;5036003;28;20477;-78
2021/01/15 04:37:28;;;;;;;11.32;7.70;;;-0.70;99.90;;;;;;5034664;28;20073;-78
2021/01/15 04:39:54;;;;;;;12.13;7.60;;;-0.70;99.90;;;;;;5034571;28;20076;-79
2021/01/15 04:42:22;;;;;;;15.50;7.90;;;-0.70;99.90;;;;;;5034756;28;20527;-78
2021/01/15 04:44:50;;;;;;;11.30;7.72;;;-0.80;99.90;;;;;;5034404;28;20091;-78
2021/01/15 04:47:16;;;;;;;11.73;7.65;;;-0.80;99.90;;;;;;5035501;28;20141;-78
2021/01/15 04:49:45;;;;;;;16.00;10.30;;;-0.70;99.90;;;;;;5035434;28;20049;-78
2021/01/15 04:52:13;;;;;;;23.88;11.90;;;-0.70;99.90;;;;;;5035529;28;20073;-79
2021/01/15 04:54:41;;;;;;;17.38;10.23;;;-0.70;99.90;;;;;;5035529;28;20498;-78
2021/01/15 04:57:11;;;;;;;15.18;9.98;;;-0.70;99.90;;;;;;5035708;28;20099;-79
2021/01/15 04:59:48;;;;;;;14.63;9.45;;;-0.60;99.90;;;;;;5035660;28;20472;-79
2021/01/15 05:02:19;;;;;;;14.60;10.02;;;-0.60;99.90;;;;;;5035442;28;20160;-78
2021/01/15 05:04:46;;;;;;;14.68;9.55;;;-0.60;99.90;;;;;;5035153;28;20453;-78
2021/01/15 05:07:13;;;;;;;15.30;10.13;;;-0.60;99.90;;;;;;5035598;28;20103;-79
2021/01/15 05:09:44;;;;;;;14.20;10.20;;;-0.70;99.90;;;;;;5035580;28;20082;-79
2021/01/15 05:12:12;;;;;;;14.02;9.15;;;-0.70;99.90;;;;;;5033891;28;20536;-78
2021/01/15 05:14:41;;;;;;;11.75;8.23;;;-0.70;99.90;;;;;;5034478;28;20084;-79
2021/01/15 05:17:08;;;;;;;14.00;9.00;;;-0.60;99.90;;;;;;5035534;28;20133;-79
2021/01/15 05:19:40;;;;;;;15.18;7.63;;;-0.60;99.90;;;;;;5034348;28;20107;-80
2021/01/15 05:22:07;;;;;;;12.77;8.23;;;-0.60;99.90;;;;;;5128655;23;20060;-88
2021/01/15 05:24:34;;;;;;;14.05;8.63;;;-0.60;99.90;;;;;;5035936;28;20050;-89
2021/01/15 05:30:20;;;;;;;13.50;9.75;;;-0.60;99.90;;;;;;5036087;28;20053;-89
2021/01/15 05:32:48;;;;;;;12.35;8.40;;;-0.60;99.90;;;;;;5034659;28;20455;-89
2021/01/15 05:35:15;;;;;;;16.27;9.07;;;-0.70;99.90;;;;;;5034722;28;20559;-89
2021/01/15 05:37:42;;;;;;;12.32;8.77;;;-0.70;99.90;;;;;;5035784;28;20107;-89
2021/01/15 05:40:10;;;;;;;14.95;9.88;;;-0.70;99.90;;;;;;5035702;28;20045;-89
2021/01/15 05:42:51;;;;;;;19.30;12.68;;;-0.70;99.90;;;;;;5018464;28;20092;-89
2021/01/15 05:45:19;;;;;;;15.82;10.27;;;-0.70;99.90;;;;;;5018119;28;20045;-89
2021/01/15 05:47:47;;;;;;;19.75;11.70;;;-0.70;99.90;;;;;;5034262;28;20049;-89
2021/01/15 05:50:14;;;;;;;19.92;11.77;;;-0.80;99.90;;;;;;5017961;28;20087;-89
2021/01/15 05:52:57;;;;;;;22.70;13.68;;;-0.80;99.90;;;;;;5017661;28;20084;-89
2021/01/15 05:55:25;;;;;;;28.58;15.82;;;-0.80;99.90;;;;;;5017948;28;20057;-89
2021/01/15 05:57:51;;;;;;;20.33;12.80;;;-0.80;99.90;;;;;;5017705;28;20481;-89
2021/01/15 06:00:38;;;;;;;16.98;11.48;;;-0.80;99.90;;;;;;5035133;28;20049;-89
2021/01/15 06:03:06;;;;;;;19.92;12.27;;;-0.80;99.90;;;;;;5017918;28;20151;-89
2021/01/15 06:05:34;;;;;;;18.67;11.20;;;-0.70;99.90;;;;;;5035207;28;20048;-89
2021/01/15 06:08:01;;;;;;;17.88;11.55;;;-0.70;99.90;;;;;;5034918;28;20128;-89
2021/01/15 06:10:40;;;;;;;23.63;13.77;;;-0.70;99.90;;;;;;5034144;28;20124;-89
2021/01/15 06:13:07;;;;;;;21.10;12.60;;;-0.70;99.90;;;;;;5017579;28;20173;-89
2021/01/15 06:15:48;;;;;;;20.35;12.68;;;-0.70;99.90;;;;;;5017409;28;20452;-89
2021/01/15 06:18:16;;;;;;;17.20;11.75;;;-0.70;99.90;;;;;;5017100;28;20120;-89
2021/01/15 06:20:45;;;;;;;16.65;11.63;;;-0.70;99.90;;;;;;5017152;28;20092;-89
2021/01/15 06:23:13;;;;;;;16.42;11.82;;;-0.60;99.90;;;;;;5034496;28;20102;-88
2021/01/15 06:25:56;;;;;;;21.23;12.88;;;-0.60;99.90;;;;;;5017079;28;20064;-89
2021/01/15 06:28:33;;;;;;;21.02;13.40;;;-0.50;99.90;;;;;;5017365;28;20100;-89
2021/01/15 06:31:02;;;;;;;20.08;12.38;;;-0.50;99.90;;;;;;5033694;28;20095;-89
2021/01/15 06:33:28;;;;;;;20.23;12.70;;;-0.60;99.90;;;;;;5034535;28;20100;-89
2021/01/15 06:35:54;;;;;;;19.75;12.98;;;-0.60;99.90;;;;;;5033480;28;20080;-90
2021/01/15 06:38:29;;;;;;;17.90;11.70;;;-0.50;99.90;;;;;;5034395;28;20058;-89
2021/01/15 06:40:57;;;;;;;18.02;10.77;;;-0.50;99.90;;;;;;5033440;28;20088;-89
2021/01/15 06:43:34;;;;;;;18.85;10.75;;;-0.50;99.90;;;;;;5017099;28;20129;-90
2021/01/15 06:46:02;;;;;;;15.38;9.95;;;-0.50;99.90;;;;;;5017256;28;20111;-89
2021/01/15 06:48:37;;;;;;;18.25;10.73;;;-0.50;99.90;;;;;;5033406;28;20041;-89
2021/01/15 06:51:08;;;;;;;13.85;11.05;;;-0.50;99.90;;;;;;5017178;28;20057;-90
2021/01/15 06:53:41;;;;;;;31.15;14.52;;;-0.50;99.90;;;;;;5034529;28;20156;-90
2021/01/15 06:56:12;;;;;;;17.85;10.40;;;-0.50;99.90;;;;;;5016908;28;20049;-89
2021/01/15 06:58:42;;;;;;;15.10;9.15;;;-0.50;99.90;;;;;;5034041;28;20153;-89
2021/01/15 07:01:31;;;;;;;17.23;9.60;;;-0.60;99.90;;;;;;5017179;28;20053;-89
2021/01/15 07:04:29;;;;;;;15.82;10.32;;;-0.60;99.90;;;;;;5033238;28;20045;-89
2021/01/15 07:07:10;;;;;;;18.25;10.77;;;-0.60;99.90;;;;;;5016688;28;20049;-90
2021/01/15 07:09:36;;;;;;;19.67;10.40;;;-0.50;99.90;;;;;;5016825;28;20056;-90
2021/01/15 07:12:07;;;;;;;18.38;9.98;;;-0.50;99.90;;;;;;5034274;28;20136;-90
2021/01/15 07:14:56;;;;;;;20.40;10.80;;;-0.50;99.90;;;;;;5016938;28;20421;-90
2021/01/15 07:17:37;;;;;;;19.42;11.60;;;-0.50;99.90;;;;;;5016844;28;20120;-90
2021/01/15 07:20:08;;;;;;;23.02;12.52;;;-0.50;99.90;;;;;;5016944;28;20128;-90
2021/01/15 07:22:36;;;;;;;22.13;14.93;;;-0.50;99.90;;;;;;5032997;28;20061;-90
2021/01/15 07:25:06;;;;;;;22.38;16.70;;;-0.50;99.90;;;;;;5034071;28;20063;-90
2021/01/15 07:27:32;;;;;;;26.63;16.02;;;-0.50;99.90;;;;;;5033369;28;20159;-90
2021/01/15 07:29:59;;;;;;;23.58;15.63;;;-0.40;99.90;;;;;;5033947;28;20123;-90
2021/01/15 07:32:29;;;;;;;21.55;12.18;;;-0.40;99.90;;;;;;5016506;28;20081;-90
2021/01/15 07:35:01;;;;;;;20.38;12.27;;;-0.40;99.90;;;;;;5016844;28;20046;-89
2021/01/15 07:37:29;;;;;;;18.38;12.73;;;-0.40;99.90;;;;;;5016193;28;20046;-89
2021/01/15 07:40:15;;;;;;;21.90;14.50;;;-0.30;99.90;;;;;;5016698;28;20053;-90
2021/01/15 07:42:50;;;;;;;26.55;16.55;;;-0.30;99.90;;;;;;5033736;28;20049;-90
2021/01/15 07:45:27;;;;;;;24.70;13.15;;;-0.30;99.90;;;;;;5016565;28;20445;-90
2021/01/15 07:48:05;;;;;;;19.88;11.18;;;-0.30;99.90;;;;;;5033901;28;20053;-89
2021/01/15 07:50:40;;;;;;;19.27;11.35;;;-0.30;99.90;;;;;;5032702;28;20490;-90
2021/01/15 07:53:16;;;;;;;16.77;11.18;;;-0.30;99.90;;;;;;5032594;28;20056;-90
2021/01/15 07:55:53;;;;;;;22.77;12.25;;;-0.30;99.90;;;;;;5016321;28;20188;-90
2021/01/15 07:58:22;;;;;;;19.23;11.07;;;-0.40;99.90;;;;;;5033442;28;20049;-90
2021/01/15 08:00:49;;;;;;;19.08;12.20;;;-0.30;99.90;;;;;;5016170;28;20567;-90
2021/01/15 08:03:16;;;;;;;22.60;12.13;;;-0.30;99.90;;;;;;5033491;28;20452;-90
2021/01/15 08:05:44;;;;;;;21.13;12.02;;;-0.30;99.90;;;;;;5032484;28;20049;-90
2021/01/15 08:08:15;;;;;;;21.02;11.77;;;-0.20;99.90;;;;;;5016491;28;20407;-90
2021/01/15 08:10:49;;;;;;;21.35;11.88;;;-0.30;99.90;;;;;;5016157;28;20445;-90
2021/01/15 08:13:27;;;;;;;19.30;11.65;;;-0.20;99.90;;;;;;5033403;28;20053;-90
2021/01/15 08:15:56;;;;;;;25.33;11.50;;;-0.20;99.90;;;;;;5016073;28;20060;-90
2021/01/15 08:18:24;;;;;;;19.25;12.27;;;-0.20;99.90;;;;;;5016280;28;20405;-90
2021/01/15 08:20:52;;;;;;;24.13;12.38;;;-0.20;99.90;;;;;;5016021;28;20517;-90
2021/01/15 08:23:22;;;;;;;19.33;12.90;;;-0.20;99.90;;;;;;5015567;28;20057;-90
2021/01/15 08:25:50;;;;;;;25.38;14.38;;;-0.10;99.90;;;;;;5033225;28;20159;-90
2021/01/15 08:28:16;;;;;;;26.08;15.50;;;-0.20;99.90;;;;;;5032024;28;20091;-90
2021/01/15 08:31:06;;;;;;;23.30;13.60;;;-0.10;99.90;;;;;;5016088;28;20073;-89
2021/01/15 08:33:34;;;;;;;27.30;15.55;;;0.00;99.90;;;;;;5015966;28;20072;-90
2021/01/15 08:36:03;;;;;;;18.83;11.48;;;0.00;99.90;;;;;;5016140;28;20462;-90
2021/01/15 08:38:34;;;;;;;21.25;11.43;;;0.00;99.90;;;;;;5033012;28;20056;-90
2021/01/15 08:41:23;;;;;;;17.65;12.00;;;0.00;99.90;;;;;;5016877;28;20046;-90
2021/01/15 08:43:54;;;;;;;20.73;13.40;;;-0.10;99.90;;;;;;5015911;28;20482;-90
2021/01/15 08:46:22;;;;;;;24.42;14.43;;;0.00;99.90;;;;;;5016159;28;20045;-90
2021/01/15 08:48:49;;;;;;;26.83;16.35;;;0.10;99.90;;;;;;5016957;28;20049;-90
2021/01/15 08:51:19;;;;;;;29.33;16.23;;;0.20;99.90;;;;;;5019350;28;20049;-90
2021/01/15 08:54:05;;;;;;;26.88;16.35;;;0.20;99.90;;;;;;5036722;28;20045;-90
2021/01/15 08:56:42;;;;;;;40.30;16.70;;;0.20;99.90;;;;;;5019303;28;20057;-89
2021/01/15 08:59:11;;;;;;;21.88;15.30;;;0.20;99.90;;;;;;5018750;28;20088;-90
2021/01/15 09:01:41;;;;;;;25.70;16.38;;;0.10;99.90;;;;;;5035546;28;20051;-90
2021/01/15 09:04:13;;;;;;;26.90;16.33;;;0.30;99.90;;;;;;5019387;28;20088;-90
2021/01/15 09:06:40;;;;;;;27.35;17.65;;;0.30;99.90;;;;;;5036295;28;20092;-90
2021/01/15 09:09:09;;;;;;;25.02;16.05;;;0.30;99.90;;;;;;5018985;28;20085;-90
2021/01/15 09:11:38;;;;;;;23.38;15.48;;;0.30;99.90;;;;;;5036197;28;20482;-90
2021/01/15 09:14:06;;;;;;;23.13;15.13;;;0.30;99.90;;;;;;5035336;28;20130;-90
2021/01/15 09:16:33;;;;;;;25.10;15.68;;;0.30;99.90;;;;;;5036219;28;20468;-90
2021/01/15 09:19:12;;;;;;;23.52;15.98;;;0.40;99.90;;;;;;5035488;28;20105;-90
2021/01/15 09:21:52;;;;;;;27.67;16.92;;;0.40;99.90;;;;;;5018649;28;20643;-90
2021/01/15 09:24:21;;;;;;;27.95;17.33;;;0.40;99.90;;;;;;5019036;28;20409;-90
2021/01/15 09:26:53;;;;;;;28.13;17.33;;;0.30;99.90;;;;;;5018526;28;20080;-90
2021/01/15 09:29:20;;;;;;;29.52;15.95;;;0.40;99.90;;;;;;5036180;28;20068;-90
2021/01/15 09:31:46;;;;;;;23.85;15.02;;;0.40;99.90;;;;;;5035875;28;20128;-90
2021/01/15 09:34:13;;;;;;;20.13;14.70;;;0.30;99.90;;;;;;5018775;28;20049;-90
2021/01/15 09:36:42;;;;;;;18.67;12.45;;;0.20;99.90;;;;;;5018250;28;20054;-90
2021/01/15 09:39:09;;;;;;;28.73;17.35;;;0.10;99.90;;;;;;5018575;28;20053;-90
2021/01/15 09:41:41;;;;;;;19.85;13.63;;;0.00;99.90;;;;;;5018205;28;20096;-90
2021/01/15 09:44:07;;;;;;;17.90;12.27;;;-0.10;99.90;;;;;;5018569;28;20053;-90
2021/01/15 09:46:33;;;;;;;18.27;12.90;;;-0.20;99.90;;;;;;5035506;28;20508;-90
2021/01/15 09:49:00;;;;;;;17.08;12.25;;;-0.10;99.90;;;;;;5018488;28;20461;-90
2021/01/15 09:51:28;;;;;;;19.08;11.77;;;0.00;99.90;;;;;;5018248;28;20080;-90
2021/01/15 09:53:55;;;;;;;17.63;11.52;;;0.10;99.90;;;;;;5018016;28;20148;-90
2021/01/15 09:56:33;;;;;;;18.70;11.68;;;0.20;99.90;;;;;;5035369;28;20046;-90
2021/01/15 09:59:01;;;;;;;17.75;11.50;;;0.30;99.90;;;;;;5017188;28;20111;-90
2021/01/15 10:01:29;;;;;;;16.75;11.85;;;0.20;99.90;;;;;;5035433;28;20472;-89
2021/01/15 10:03:58;;;;;;;15.20;11.07;;;0.20;99.90;;;;;;5017964;28;20132;-90
2021/01/15 10:06:28;;;;;;;15.57;11.15;;;0.30;99.90;;;;;;5035203;28;20060;-90
2021/01/15 10:08:57;;;;;;;19.73;11.27;;;0.40;99.90;;;;;;5017805;28;20057;-90
2021/01/15 10:11:26;;;;;;;16.40;10.52;;;0.40;99.90;;;;;;5017991;28;20057;-90
2021/01/15 10:13:57;;;;;;;15.77;11.15;;;0.50;99.90;;;;;;5035154;28;20053;-90
2021/01/15 10:16:24;;;;;;;12.98;9.50;;;0.40;99.90;;;;;;5017451;28;20485;-90
2021/01/15 10:18:51;;;;;;;14.85;10.00;;;0.60;99.90;;;;;;5017575;28;20144;-90
2021/01/15 10:21:21;;;;;;;15.48;10.10;;;0.80;99.90;;;;;;5034891;28;20132;-90
2021/01/15 10:23:48;;;;;;;13.55;9.27;;;0.90;99.90;;;;;;5017501;28;20493;-90
2021/01/15 10:26:25;;;;;;;11.52;9.35;;;0.90;99.90;;;;;;5034959;28;20041;-90
2021/01/15 10:28:59;;;;;;;14.57;11.95;;;0.90;99.90;;;;;;5034572;28;20081;-90
2021/01/15 10:31:43;;;;;;;72.35;46.40;;;0.90;99.90;;;;;;5017474;28;20061;-89
2021/01/15 10:34:10;;;;;;;51.30;30.35;;;0.90;99.90;;;;;;5017485;28;20046;-90
2021/01/15 10:36:40;;;;;;;77.15;50.90;;;0.80;99.90;;;;;;5034306;28;20077;-90
2021/01/15 10:39:07;;;;;;;19.88;14.35;;;0.90;99.90;;;;;;5017040;28;20171;-90
2021/01/15 10:41:36;;;;;;;27.58;20.90;;;0.90;99.90;;;;;;5017108;28;20077;-90
2021/01/15 10:44:05;;;;;;;69.20;57.05;;;0.80;99.90;;;;;;5034410;28;20113;-90
2021/01/15 10:46:52;;;;;;;50.58;45.25;;;0.90;99.90;;;;;;5034371;28;20049;-90
2021/01/15 10:49:21;;;;;;;27.55;24.67;;;0.90;99.90;;;;;;5017186;28;20064;-90
2021/01/15 10:51:54;;;;;;;18.15;12.60;;;0.80;99.90;;;;;;5017100;28;20073;-90
2021/01/15 10:54:24;;;;;;;17.95;14.30;;;0.80;99.90;;;;;;5034521;28;20057;-90
2021/01/15 10:56:53;;;;;;;18.45;14.93;;;0.60;99.90;;;;;;5016821;28;20045;-90
2021/01/15 10:59:19;;;;;;;16.63;12.68;;;0.60;99.90;;;;;;5034180;28;20159;-91
2021/01/15 11:01:50;;;;;;;16.52;12.80;;;0.60;99.90;;;;;;5034310;28;20088;-90
2021/01/15 11:04:18;;;;;;;14.43;10.35;;;0.50;99.90;;;;;;5016736;28;20060;-90
2021/01/15 11:06:47;;;;;;;17.30;11.88;;;0.50;99.90;;;;;;5016634;28;20057;-89
2021/01/15 11:09:22;;;;;;;15.88;11.48;;;0.60;99.90;;;;;;5034353;28;20072;-89
2021/01/15 11:12:06;;;;;;;16.00;10.73;;;0.70;99.90;;;;;;5018755;28;20559;-90
2021/01/15 11:14:33;;;;;;;17.80;11.38;;;0.60;99.90;;;;;;5032856;28;20084;-90
2021/01/15 11:16:59;;;;;;;22.83;12.55;;;0.50;99.90;;;;;;5033916;28;20136;-90
2021/01/15 11:19:25;;;;;;;17.88;12.20;;;0.50;99.90;;;;;;5016585;28;20099;-90
2021/01/15 11:21:52;;;;;;;16.80;11.23;;;0.40;99.90;;;;;;5033836;28;20077;-90
2021/01/15 11:24:19;;;;;;;14.55;10.30;;;0.40;99.90;;;;;;5033487;28;20115;-90
2021/01/15 11:26:46;;;;;;;15.48;10.23;;;0.50;99.90;;;;;;5033738;28;20045;-90
2021/01/15 11:29:13;;;;;;;29.20;12.27;;;0.70;99.90;;;;;;5016287;28;20056;-90
2021/01/15 11:31:40;;;;;;;18.48;12.35;;;0.70;99.90;;;;;;5016137;28;20053;-90
2021/01/15 11:34:07;;;;;;;15.88;11.35;;;0.50;99.90;;;;;;5016440;28;20451;-90
2021/01/15 11:36:33;;;;;;;18.92;11.13;;;0.50;99.90;;;;;;5033601;28;20489;-91
2021/01/15 11:39:10;;;;;;;16.50;11.32;;;0.60;99.90;;;;;;5033473;28;20085;-90
2021/01/15 11:41:36;;;;;;;15.13;10.20;;;0.60;99.90;;;;;;5016082;28;20522;-90
2021/01/15 11:44:05;;;;;;;19.75;15.05;;;0.70;99.90;;;;;;5033379;28;20453;-90
2021/01/15 11:46:31;;;;;;;17.00;11.30;;;0.70;99.90;;;;;;5015935;28;20103;-91
2021/01/15 11:48:59;;;;;;;16.50;10.65;;;0.70;99.90;;;;;;5016215;28;20049;-90
2021/01/15 11:51:29;;;;;;;15.38;10.93;;;0.80;99.90;;;;;;5016376;28;20076;-90
2021/01/15 11:53:55;;;;;;;98.65;67.40;;;0.90;99.90;;;;;;5033422;28;20057;-91
2021/01/15 11:56:22;;;;;;;26.40;18.30;;;0.70;99.90;;;;;;5015929;28;20046;-90
2021/01/15 11:58:48;;;;;;;19.70;11.45;;;0.80;99.90;;;;;;5015754;28;20152;-90
2021/01/15 12:01:16;;;;;;;19.27;12.25;;;0.90;99.90;;;;;;5015979;28;20141;-91
2021/01/15 12:03:42;;;;;;;23.60;12.65;;;0.90;99.90;;;;;;5015955;28;20060;-90
2021/01/15 12:06:10;;;;;;;19.33;11.52;;;0.90;99.90;;;;;;5033524;28;20041;-90
2021/01/15 12:08:39;;;;;;;20.15;11.70;;;0.90;99.90;;;;;;5033383;28;20060;-91
2021/01/15 12:11:07;;;;;;;15.85;10.88;;;1.00;99.90;;;;;;5016380;28;20472;-90
2021/01/15 12:13:34;;;;;;;16.15;10.35;;;1.10;99.90;;;;;;5032352;28;20056;-91
2021/01/15 12:16:01;;;;;;;25.73;10.18;;;1.00;99.90;;;;;;5016228;28;20045;-90
2021/01/15 12:18:28;;;;;;;14.55;8.88;;;1.10;99.90;;;;;;5016168;28;20132;-90
2021/01/15 12:20:56;;;;;;;15.68;10.05;;;1.10;99.90;;;;;;5016060;28;20053;-90
2021/01/15 12:23:23;;;;;;;14.38;9.77;;;1.00;99.90;;;;;;5035306;28;20068;-91
2021/01/15 12:25:50;;;;;;;15.90;11.23;;;1.00;99.90;;;;;;5035948;28;20482;-90
2021/01/15 12:28:19;;;;;;;15.43;10.65;;;1.00;99.90;;;;;;5019483;28;20045;-90
2021/01/15 12:30:46;;;;;;;16.85;10.23;;;0.90;99.90;;;;;;5019260;28;20053;-90
2021/01/15 12:33:14;;;;;;;14.85;9.68;;;0.80;99.90;;;;;;5019336;28;20080;-90
2021/01/15 12:35:45;;;;;;;14.73;10.43;;;0.80;99.90;;;;;;5019217;28;20352;-90
2021/01/15 12:38:13;;;;;;;17.83;10.40;;;0.80;99.90;;;;;;5036552;28;20049;-90
2021/01/15 12:40:40;;;;;;;16.88;9.55;;;0.90;99.90;;;;;;5018653;28;20440;-90
2021/01/15 12:43:09;;;;;;;14.32;9.20;;;1.00;99.90;;;;;;5030481;28;20077;-90
2021/01/15 12:45:37;;;;;;;12.77;9.55;;;1.10;99.90;;;;;;5003595;28;20092;-90
2021/01/15 12:48:05;;;;;;;14.85;9.55;;;1.20;99.90;;;;;;4999337;28;20074;-90
2021/01/15 12:50:31;;;;;;;13.63;9.45;;;1.30;99.90;;;;;;4999252;28;20132;-90
2021/01/15 12:52:58;;;;;;;11.95;8.75;;;1.40;99.90;;;;;;4999227;28;20054;-90